sensor_id;sensor_type;location;lat;lon;timestamp;P1;durP1;ratioP1;P2;durP2;ratioP2
32333;SDS011;18810;53.040;8.850;2023-10-13T00:01:59;108.85;;;40.70;;
32333;SDS011;18810;53.040;8.850;2023-10-13T00:04:29;87.93;;;36.00;;
32333;SDS011;18810;53.040;8.850;2023-10-13T00:06:57;93.95;;;39.13;;
32333;SDS011;18810;53.040;8.850;2023-10-13T00:09:24;100.50;;;39.45;;
32333;SDS011;18810;53.040;8.850;2023-10-13T00:11:54;96.47;;;39.70;;
32333;SDS011;18810;53.040;8.850;2023-10-13T00:14:21;109.82;;;41.33;;
32333;SDS011;18810;53.040;8.850;2023-10-13T00:16:47;95.80;;;40.42;;
32333;SDS011;18810;53.040;8.850;2023-10-13T00:19:33;121.13;;;44.13;;
32333;SDS011;18810;53.040;8.850;2023-10-13T00:22:09;95.07;;;40.92;;
32333;SDS011;18810;53.040;8.850;2023-10-13T00:24:39;115.97;;;44.53;;
32333;SDS011;18810;53.040;8.850;2023-10-13T00:27:14;115.70;;;45.75;;
32333;SDS011;18810;53.040;8.850;2023-10-13T00:30:03;103.10;;;42.78;;
32333;SDS011;18810;53.040;8.850;2023-10-13T00:32:45;105.57;;;42.85;;
32333;SDS011;18810;53.040;8.850;2023-10-13T00:35:17;118.85;;;46.50;;
32333;SDS011;18810;53.040;8.850;2023-10-13T00:38:05;119.78;;;45.22;;
32333;SDS011;18810;53.040;8.850;2023-10-13T00:40:42;120.35;;;45.03;;
32333;SDS011;18810;53.040;8.850;2023-10-13T00:43:18;102.35;;;41.97;;
32333;SDS011;18810;53.040;8.850;2023-10-13T00:45:45;110.22;;;44.85;;
32333;SDS011;18810;53.040;8.850;2023-10-13T00:48:25;103.55;;;43.83;;
32333;SDS011;18810;53.040;8.850;2023-10-13T00:50:57;108.32;;;44.72;;
32333;SDS011;18810;53.040;8.850;2023-10-13T00:53:28;110.75;;;44.10;;
32333;SDS011;18810;53.040;8.850;2023-10-13T00:55:58;116.28;;;46.55;;
32333;SDS011;18810;53.040;8.850;2023-10-13T00:58:35;112.03;;;46.15;;
32333;SDS011;18810;53.040;8.850;2023-10-13T01:01:04;111.55;;;45.78;;
32333;SDS011;18810;53.040;8.850;2023-10-13T01:03:52;106.82;;;44.17;;
32333;SDS011;18810;53.040;8.850;2023-10-13T01:06:24;112.60;;;45.40;;
32333;SDS011;18810;53.040;8.850;2023-10-13T01:09:00;112.10;;;46.10;;
32333;SDS011;18810;53.040;8.850;2023-10-13T01:11:36;107.20;;;45.88;;
32333;SDS011;18810;53.040;8.850;2023-10-13T01:14:02;122.22;;;47.53;;
32333;SDS011;18810;53.040;8.850;2023-10-13T01:16:29;111.97;;;48.25;;
32333;SDS011;18810;53.040;8.850;2023-10-13T01:18:55;112.32;;;46.55;;
32333;SDS011;18810;53.040;8.850;2023-10-13T01:21:24;108.20;;;46.05;;
32333;SDS011;18810;53.040;8.850;2023-10-13T01:23:53;120.30;;;47.00;;
32333;SDS011;18810;53.040;8.850;2023-10-13T01:26:19;112.03;;;45.60;;
32333;SDS011;18810;53.040;8.850;2023-10-13T01:28:51;110.53;;;48.22;;
32333;SDS011;18810;53.040;8.850;2023-10-13T01:31:22;120.55;;;48.50;;
32333;SDS011;18810;53.040;8.850;2023-10-13T01:34:02;124.43;;;48.50;;
32333;SDS011;18810;53.040;8.850;2023-10-13T01:36:28;119.57;;;49.97;;
32333;SDS011;18810;53.040;8.850;2023-10-13T01:39:00;135.50;;;52.22;;
32333;SDS011;18810;53.040;8.850;2023-10-13T01:41:26;134.48;;;51.05;;
32333;SDS011;18810;53.040;8.850;2023-10-13T01:43:56;138.80;;;51.90;;
32333;SDS011;18810;53.040;8.850;2023-10-13T01:46:22;110.07;;;48.33;;
32333;SDS011;18810;53.040;8.850;2023-10-13T01:48:48;122.93;;;48.40;;
32333;SDS011;18810;53.040;8.850;2023-10-13T01:51:13;122.28;;;48.05;;
32333;SDS011;18810;53.040;8.850;2023-10-13T01:53:39;110.15;;;47.70;;
32333;SDS011;18810;53.040;8.850;2023-10-13T01:56:09;121.05;;;49.45;;
32333;SDS011;18810;53.040;8.850;2023-10-13T01:58:37;117.80;;;48.35;;
32333;SDS011;18810;53.040;8.850;2023-10-13T02:01:07;114.15;;;48.47;;
32333;SDS011;18810;53.040;8.850;2023-10-13T02:03:36;128.25;;;50.85;;
32333;SDS011;18810;53.040;8.850;2023-10-13T02:06:11;112.47;;;47.92;;
32333;SDS011;18810;53.040;8.850;2023-10-13T02:11:09;114.47;;;49.25;;
32333;SDS011;18810;53.040;8.850;2023-10-13T02:13:35;125.90;;;52.78;;
32333;SDS011;18810;53.040;8.850;2023-10-13T02:16:13;134.63;;;53.95;;
32333;SDS011;18810;53.040;8.850;2023-10-13T02:18:43;127.20;;;52.13;;
32333;SDS011;18810;53.040;8.850;2023-10-13T02:21:10;114.85;;;50.05;;
32333;SDS011;18810;53.040;8.850;2023-10-13T02:23:41;119.97;;;51.40;;
32333;SDS011;18810;53.040;8.850;2023-10-13T02:26:13;128.45;;;52.20;;
32333;SDS011;18810;53.040;8.850;2023-10-13T02:28:40;128.18;;;54.85;;
32333;SDS011;18810;53.040;8.850;2023-10-13T02:31:06;125.95;;;52.75;;
32333;SDS011;18810;53.040;8.850;2023-10-13T02:33:32;126.28;;;55.15;;
32333;SDS011;18810;53.040;8.850;2023-10-13T02:36:00;114.55;;;50.80;;
32333;SDS011;18810;53.040;8.850;2023-10-13T02:38:30;135.55;;;55.60;;
32333;SDS011;18810;53.040;8.850;2023-10-13T02:40:59;128.77;;;53.47;;
32333;SDS011;18810;53.040;8.850;2023-10-13T02:43:39;130.68;;;54.63;;
32333;SDS011;18810;53.040;8.850;2023-10-13T02:46:06;128.27;;;55.95;;
32333;SDS011;18810;53.040;8.850;2023-10-13T02:48:32;119.95;;;52.88;;
32333;SDS011;18810;53.040;8.850;2023-10-13T02:51:11;130.90;;;54.83;;
32333;SDS011;18810;53.040;8.850;2023-10-13T02:53:43;133.77;;;54.30;;
32333;SDS011;18810;53.040;8.850;2023-10-13T02:56:13;125.33;;;53.87;;
32333;SDS011;18810;53.040;8.850;2023-10-13T02:58:45;143.25;;;55.20;;
32333;SDS011;18810;53.040;8.850;2023-10-13T03:01:17;133.45;;;55.67;;
32333;SDS011;18810;53.040;8.850;2023-10-13T03:03:50;125.65;;;53.88;;
32333;SDS011;18810;53.040;8.850;2023-10-13T03:06:23;128.17;;;54.63;;
32333;SDS011;18810;53.040;8.850;2023-10-13T03:08:57;131.07;;;56.55;;
32333;SDS011;18810;53.040;8.850;2023-10-13T03:11:48;132.77;;;56.38;;
32333;SDS011;18810;53.040;8.850;2023-10-13T03:14:14;131.90;;;54.80;;
32333;SDS011;18810;53.040;8.850;2023-10-13T03:16:59;124.18;;;53.03;;
32333;SDS011;18810;53.040;8.850;2023-10-13T03:19:43;117.78;;;52.67;;
32333;SDS011;18810;53.040;8.850;2023-10-13T03:22:15;116.20;;;52.70;;
32333;SDS011;18810;53.040;8.850;2023-10-13T03:24:43;105.47;;;51.05;;
32333;SDS011;18810;53.040;8.850;2023-10-13T03:27:16;110.30;;;53.33;;
32333;SDS011;18810;53.040;8.850;2023-10-13T03:29:47;122.45;;;53.10;;
32333;SDS011;18810;53.040;8.850;2023-10-13T03:32:14;118.38;;;52.13;;
32333;SDS011;18810;53.040;8.850;2023-10-13T03:34:44;117.03;;;50.85;;
32333;SDS011;18810;53.040;8.850;2023-10-13T03:37:25;110.80;;;48.95;;
32333;SDS011;18810;53.040;8.850;2023-10-13T03:40:10;120.82;;;51.42;;
32333;SDS011;18810;53.040;8.850;2023-10-13T03:42:53;111.03;;;50.95;;
32333;SDS011;18810;53.040;8.850;2023-10-13T03:45:30;111.05;;;49.75;;
32333;SDS011;18810;53.040;8.850;2023-10-13T03:48:07;117.28;;;52.28;;
32333;SDS011;18810;53.040;8.850;2023-10-13T03:50:36;111.30;;;51.15;;
32333;SDS011;18810;53.040;8.850;2023-10-13T03:53:03;108.32;;;48.88;;
32333;SDS011;18810;53.040;8.850;2023-10-13T03:55:31;109.03;;;48.63;;
32333;SDS011;18810;53.040;8.850;2023-10-13T03:58:00;112.20;;;50.67;;
32333;SDS011;18810;53.040;8.850;2023-10-13T04:00:26;116.65;;;50.65;;
32333;SDS011;18810;53.040;8.850;2023-10-13T04:02:53;116.57;;;52.13;;
32333;SDS011;18810;53.040;8.850;2023-10-13T04:05:28;108.60;;;51.65;;
32333;SDS011;18810;53.040;8.850;2023-10-13T04:08:20;103.22;;;50.00;;
32333;SDS011;18810;53.040;8.850;2023-10-13T04:10:52;110.00;;;49.90;;
32333;SDS011;18810;53.040;8.850;2023-10-13T04:13:19;111.00;;;50.05;;
32333;SDS011;18810;53.040;8.850;2023-10-13T04:16:04;108.40;;;49.78;;
32333;SDS011;18810;53.040;8.850;2023-10-13T04:18:47;102.50;;;48.78;;
32333;SDS011;18810;53.040;8.850;2023-10-13T04:21:20;104.30;;;48.92;;
32333;SDS011;18810;53.040;8.850;2023-10-13T04:24:12;109.53;;;47.97;;
32333;SDS011;18810;53.040;8.850;2023-10-13T04:26:50;104.47;;;47.10;;
32333;SDS011;18810;53.040;8.850;2023-10-13T04:29:46;107.68;;;48.05;;
32333;SDS011;18810;53.040;8.850;2023-10-13T04:32:50;100.10;;;47.38;;
32333;SDS011;18810;53.040;8.850;2023-10-13T04:35:36;102.05;;;47.15;;
32333;SDS011;18810;53.040;8.850;2023-10-13T04:38:12;101.13;;;46.90;;
32333;SDS011;18810;53.040;8.850;2023-10-13T04:40:45;99.32;;;47.45;;
32333;SDS011;18810;53.040;8.850;2023-10-13T04:43:23;100.75;;;47.80;;
32333;SDS011;18810;53.040;8.850;2023-10-13T04:46:19;105.45;;;48.08;;
32333;SDS011;18810;53.040;8.850;2023-10-13T04:49:00;99.93;;;48.50;;
32333;SDS011;18810;53.040;8.850;2023-10-13T04:51:35;104.75;;;48.10;;
32333;SDS011;18810;53.040;8.850;2023-10-13T04:54:20;109.63;;;46.88;;
32333;SDS011;18810;53.040;8.850;2023-10-13T04:56:58;102.18;;;47.90;;
32333;SDS011;18810;53.040;8.850;2023-10-13T04:59:47;113.07;;;51.13;;
32333;SDS011;18810;53.040;8.850;2023-10-13T05:02:29;106.45;;;47.55;;
32333;SDS011;18810;53.040;8.850;2023-10-13T05:05:10;102.38;;;49.70;;
32333;SDS011;18810;53.040;8.850;2023-10-13T05:07:41;105.65;;;49.72;;
32333;SDS011;18810;53.040;8.850;2023-10-13T05:10:25;104.65;;;49.17;;
32333;SDS011;18810;53.040;8.850;2023-10-13T05:13:10;102.97;;;48.90;;
32333;SDS011;18810;53.040;8.850;2023-10-13T05:15:54;108.60;;;50.33;;
32333;SDS011;18810;53.040;8.850;2023-10-13T05:18:38;106.43;;;49.33;;
32333;SDS011;18810;53.040;8.850;2023-10-13T05:21:22;106.70;;;52.08;;
32333;SDS011;18810;53.040;8.850;2023-10-13T05:24:07;110.13;;;50.08;;
32333;SDS011;18810;53.040;8.850;2023-10-13T05:26:52;113.03;;;53.65;;
32333;SDS011;18810;53.040;8.850;2023-10-13T05:29:40;108.38;;;53.10;;
32333;SDS011;18810;53.040;8.850;2023-10-13T05:32:25;107.70;;;52.25;;
32333;SDS011;18810;53.040;8.850;2023-10-13T05:35:09;107.35;;;52.47;;
32333;SDS011;18810;53.040;8.850;2023-10-13T05:37:54;102.10;;;50.60;;
32333;SDS011;18810;53.040;8.850;2023-10-13T05:40:38;113.93;;;53.90;;
32333;SDS011;18810;53.040;8.850;2023-10-13T05:43:22;101.90;;;49.75;;
32333;SDS011;18810;53.040;8.850;2023-10-13T05:46:06;105.25;;;51.88;;
32333;SDS011;18810;53.040;8.850;2023-10-13T05:48:51;111.78;;;53.65;;
32333;SDS011;18810;53.040;8.850;2023-10-13T05:51:37;108.25;;;52.38;;
32333;SDS011;18810;53.040;8.850;2023-10-13T05:54:06;107.97;;;51.72;;
32333;SDS011;18810;53.040;8.850;2023-10-13T05:56:45;104.47;;;51.20;;
32333;SDS011;18810;53.040;8.850;2023-10-13T05:59:30;115.00;;;51.40;;
32333;SDS011;18810;53.040;8.850;2023-10-13T06:02:16;108.43;;;52.55;;
32333;SDS011;18810;53.040;8.850;2023-10-13T06:05:01;114.20;;;53.75;;
32333;SDS011;18810;53.040;8.850;2023-10-13T06:07:46;109.72;;;53.95;;
32333;SDS011;18810;53.040;8.850;2023-10-13T06:10:30;109.95;;;54.40;;
32333;SDS011;18810;53.040;8.850;2023-10-13T06:13:14;106.00;;;52.50;;
32333;SDS011;18810;53.040;8.850;2023-10-13T06:15:59;114.60;;;55.45;;
32333;SDS011;18810;53.040;8.850;2023-10-13T06:18:43;108.80;;;53.63;;
32333;SDS011;18810;53.040;8.850;2023-10-13T06:21:27;117.20;;;55.70;;
32333;SDS011;18810;53.040;8.850;2023-10-13T06:24:12;118.97;;;56.47;;
32333;SDS011;18810;53.040;8.850;2023-10-13T06:26:56;117.45;;;55.05;;
32333;SDS011;18810;53.040;8.850;2023-10-13T06:29:40;110.78;;;54.33;;
32333;SDS011;18810;53.040;8.850;2023-10-13T06:32:06;107.75;;;53.80;;
32333;SDS011;18810;53.040;8.850;2023-10-13T06:34:38;113.50;;;52.67;;
32333;SDS011;18810;53.040;8.850;2023-10-13T06:37:16;103.63;;;52.20;;
32333;SDS011;18810;53.040;8.850;2023-10-13T06:39:49;103.90;;;52.15;;
32333;SDS011;18810;53.040;8.850;2023-10-13T06:42:15;110.70;;;51.85;;
32333;SDS011;18810;53.040;8.850;2023-10-13T06:44:43;99.05;;;50.00;;
32333;SDS011;18810;53.040;8.850;2023-10-13T06:47:12;89.63;;;48.45;;
32333;SDS011;18810;53.040;8.850;2023-10-13T06:49:41;99.82;;;50.50;;
32333;SDS011;18810;53.040;8.850;2023-10-13T06:52:09;95.50;;;49.57;;
32333;SDS011;18810;53.040;8.850;2023-10-13T06:54:38;100.43;;;50.22;;
32333;SDS011;18810;53.040;8.850;2023-10-13T06:57:04;98.55;;;49.10;;
32333;SDS011;18810;53.040;8.850;2023-10-13T06:59:33;94.72;;;49.03;;
32333;SDS011;18810;53.040;8.850;2023-10-13T07:02:01;108.93;;;52.10;;
32333;SDS011;18810;53.040;8.850;2023-10-13T07:04:35;98.30;;;50.13;;
32333;SDS011;18810;53.040;8.850;2023-10-13T07:07:09;94.40;;;48.20;;
32333;SDS011;18810;53.040;8.850;2023-10-13T07:09:36;99.55;;;49.80;;
32333;SDS011;18810;53.040;8.850;2023-10-13T07:12:02;100.20;;;51.45;;
32333;SDS011;18810;53.040;8.850;2023-10-13T07:14:31;93.40;;;47.88;;
32333;SDS011;18810;53.040;8.850;2023-10-13T07:17:05;92.35;;;48.97;;
32333;SDS011;18810;53.040;8.850;2023-10-13T07:19:33;89.70;;;49.15;;
32333;SDS011;18810;53.040;8.850;2023-10-13T07:22:02;99.78;;;48.85;;
32333;SDS011;18810;53.040;8.850;2023-10-13T07:24:49;92.22;;;47.05;;
32333;SDS011;18810;53.040;8.850;2023-10-13T07:27:22;91.45;;;46.50;;
32333;SDS011;18810;53.040;8.850;2023-10-13T07:29:49;80.07;;;43.70;;
32333;SDS011;18810;53.040;8.850;2023-10-13T07:32:31;77.43;;;42.17;;
32333;SDS011;18810;53.040;8.850;2023-10-13T07:34:59;77.28;;;42.08;;
32333;SDS011;18810;53.040;8.850;2023-10-13T07:37:36;62.58;;;34.40;;
32333;SDS011;18810;53.040;8.850;2023-10-13T07:40:06;53.42;;;31.27;;
32333;SDS011;18810;53.040;8.850;2023-10-13T07:43:07;49.83;;;29.90;;
32333;SDS011;18810;53.040;8.850;2023-10-13T07:45:39;45.47;;;28.33;;
32333;SDS011;18810;53.040;8.850;2023-10-13T07:48:06;47.15;;;27.95;;
32333;SDS011;18810;53.040;8.850;2023-10-13T07:50:58;39.88;;;25.83;;
32333;SDS011;18810;53.040;8.850;2023-10-13T07:55:59;40.95;;;25.40;;
32333;SDS011;18810;53.040;8.850;2023-10-13T07:58:31;40.17;;;24.95;;
32333;SDS011;18810;53.040;8.850;2023-10-13T08:00:57;40.67;;;24.17;;
32333;SDS011;18810;53.040;8.850;2023-10-13T08:03:35;40.92;;;25.20;;
32333;SDS011;18810;53.040;8.850;2023-10-13T08:06:19;36.13;;;24.25;;
32333;SDS011;18810;53.040;8.850;2023-10-13T08:08:45;41.08;;;25.38;;
32333;SDS011;18810;53.040;8.850;2023-10-13T08:11:15;39.45;;;24.77;;
32333;SDS011;18810;53.040;8.850;2023-10-13T08:14:01;38.55;;;24.02;;
32333;SDS011;18810;53.040;8.850;2023-10-13T08:16:45;33.42;;;22.58;;
32333;SDS011;18810;53.040;8.850;2023-10-13T08:19:14;29.48;;;22.15;;
32333;SDS011;18810;53.040;8.850;2023-10-13T08:21:42;34.47;;;21.90;;
32333;SDS011;18810;53.040;8.850;2023-10-13T08:24:17;27.85;;;20.20;;
32333;SDS011;18810;53.040;8.850;2023-10-13T08:26:52;27.75;;;18.70;;
32333;SDS011;18810;53.040;8.850;2023-10-13T08:29:36;28.35;;;18.17;;
32333;SDS011;18810;53.040;8.850;2023-10-13T08:32:29;23.27;;;17.25;;
32333;SDS011;18810;53.040;8.850;2023-10-13T08:34:56;23.98;;;17.27;;
32333;SDS011;18810;53.040;8.850;2023-10-13T08:37:22;23.42;;;16.40;;
32333;SDS011;18810;53.040;8.850;2023-10-13T08:39:49;23.08;;;15.80;;
32333;SDS011;18810;53.040;8.850;2023-10-13T08:42:34;24.25;;;15.07;;
32333;SDS011;18810;53.040;8.850;2023-10-13T08:45:16;21.50;;;14.85;;
32333;SDS011;18810;53.040;8.850;2023-10-13T08:47:48;22.85;;;15.05;;
32333;SDS011;18810;53.040;8.850;2023-10-13T08:50:36;20.58;;;15.52;;
32333;SDS011;18810;53.040;8.850;2023-10-13T08:53:18;22.73;;;15.45;;
32333;SDS011;18810;53.040;8.850;2023-10-13T08:59:01;25.80;;;15.88;;
32333;SDS011;18810;53.040;8.850;2023-10-13T09:01:28;24.08;;;16.08;;
32333;SDS011;18810;53.040;8.850;2023-10-13T09:03:58;23.80;;;15.75;;
32333;SDS011;18810;53.040;8.850;2023-10-13T09:06:48;23.60;;;15.20;;
32333;SDS011;18810;53.040;8.850;2023-10-13T09:09:43;21.83;;;15.23;;
32333;SDS011;18810;53.040;8.850;2023-10-13T09:15:02;21.05;;;15.40;;
32333;SDS011;18810;53.040;8.850;2023-10-13T09:17:42;21.00;;;15.77;;
32333;SDS011;18810;53.040;8.850;2023-10-13T09:20:30;22.88;;;15.77;;
32333;SDS011;18810;53.040;8.850;2023-10-13T09:23:14;24.73;;;15.88;;
32333;SDS011;18810;53.040;8.850;2023-10-13T09:25:50;26.90;;;16.08;;
32333;SDS011;18810;53.040;8.850;2023-10-13T09:28:23;22.75;;;15.80;;
32333;SDS011;18810;53.040;8.850;2023-10-13T09:30:51;22.88;;;15.90;;
32333;SDS011;18810;53.040;8.850;2023-10-13T09:33:22;28.30;;;17.98;;
32333;SDS011;18810;53.040;8.850;2023-10-13T09:35:58;25.25;;;17.00;;
32333;SDS011;18810;53.040;8.850;2023-10-13T09:38:27;26.35;;;17.08;;
32333;SDS011;18810;53.040;8.850;2023-10-13T09:40:57;25.23;;;17.67;;
32333;SDS011;18810;53.040;8.850;2023-10-13T09:43:26;23.45;;;16.73;;
32333;SDS011;18810;53.040;8.850;2023-10-13T09:45:58;22.50;;;16.75;;
32333;SDS011;18810;53.040;8.850;2023-10-13T09:48:32;21.77;;;16.05;;
32333;SDS011;18810;53.040;8.850;2023-10-13T09:51:04;22.58;;;16.92;;
32333;SDS011;18810;53.040;8.850;2023-10-13T09:53:35;23.77;;;16.40;;
32333;SDS011;18810;53.040;8.850;2023-10-13T09:56:14;23.80;;;16.05;;
32333;SDS011;18810;53.040;8.850;2023-10-13T09:59:03;22.35;;;14.93;;
32333;SDS011;18810;53.040;8.850;2023-10-13T10:01:40;22.10;;;14.63;;
32333;SDS011;18810;53.040;8.850;2023-10-13T10:04:17;25.08;;;15.20;;
32333;SDS011;18810;53.040;8.850;2023-10-13T10:06:54;20.35;;;14.55;;
32333;SDS011;18810;53.040;8.850;2023-10-13T10:09:30;19.15;;;14.10;;
32333;SDS011;18810;53.040;8.850;2023-10-13T10:15:03;21.52;;;14.00;;
32333;SDS011;18810;53.040;8.850;2023-10-13T10:20:07;22.02;;;13.00;;
32333;SDS011;18810;53.040;8.850;2023-10-13T10:22:57;19.08;;;13.07;;
32333;SDS011;18810;53.040;8.850;2023-10-13T10:25:31;15.73;;;12.77;;
32333;SDS011;18810;53.040;8.850;2023-10-13T10:28:05;20.05;;;13.15;;
32333;SDS011;18810;53.040;8.850;2023-10-13T10:30:36;20.05;;;13.27;;
32333;SDS011;18810;53.040;8.850;2023-10-13T10:33:07;17.35;;;13.32;;
32333;SDS011;18810;53.040;8.850;2023-10-13T10:35:37;20.77;;;14.05;;
32333;SDS011;18810;53.040;8.850;2023-10-13T10:38:15;20.40;;;13.90;;
32333;SDS011;18810;53.040;8.850;2023-10-13T10:41:01;18.30;;;13.23;;
32333;SDS011;18810;53.040;8.850;2023-10-13T10:46:09;18.55;;;12.90;;
32333;SDS011;18810;53.040;8.850;2023-10-13T10:48:39;20.08;;;11.57;;
32333;SDS011;18810;53.040;8.850;2023-10-13T10:51:12;19.40;;;12.45;;
32333;SDS011;18810;53.040;8.850;2023-10-13T10:53:48;19.42;;;11.32;;
32333;SDS011;18810;53.040;8.850;2023-10-13T10:56:16;16.75;;;10.88;;
32333;SDS011;18810;53.040;8.850;2023-10-13T10:59:02;17.35;;;10.70;;
32333;SDS011;18810;53.040;8.850;2023-10-13T11:01:31;19.25;;;10.05;;
32333;SDS011;18810;53.040;8.850;2023-10-13T11:04:04;17.58;;;8.85;;
32333;SDS011;18810;53.040;8.850;2023-10-13T11:06:44;17.42;;;9.82;;
32333;SDS011;18810;53.040;8.850;2023-10-13T11:09:11;16.92;;;9.55;;
32333;SDS011;18810;53.040;8.850;2023-10-13T11:14:59;19.98;;;9.38;;
32333;SDS011;18810;53.040;8.850;2023-10-13T11:17:54;11.43;;;8.00;;
32333;SDS011;18810;53.040;8.850;2023-10-13T11:20:20;16.13;;;8.45;;
32333;SDS011;18810;53.040;8.850;2023-10-13T11:23:12;14.10;;;7.85;;
32333;SDS011;18810;53.040;8.850;2023-10-13T11:25:38;14.52;;;8.07;;
32333;SDS011;18810;53.040;8.850;2023-10-13T11:28:14;15.40;;;8.75;;
32333;SDS011;18810;53.040;8.850;2023-10-13T11:30:52;18.42;;;8.27;;
32333;SDS011;18810;53.040;8.850;2023-10-13T11:33:23;17.83;;;7.75;;
32333;SDS011;18810;53.040;8.850;2023-10-13T11:35:51;19.50;;;8.45;;
32333;SDS011;18810;53.040;8.850;2023-10-13T11:38:27;15.20;;;8.20;;
32333;SDS011;18810;53.040;8.850;2023-10-13T11:41:05;15.88;;;8.25;;
32333;SDS011;18810;53.040;8.850;2023-10-13T11:43:32;12.77;;;7.70;;
32333;SDS011;18810;53.040;8.850;2023-10-13T11:46:23;11.43;;;7.22;;
32333;SDS011;18810;53.040;8.850;2023-10-13T11:49:02;21.98;;;8.65;;
32333;SDS011;18810;53.040;8.850;2023-10-13T11:51:45;18.60;;;7.05;;
32333;SDS011;18810;53.040;8.850;2023-10-13T11:54:13;15.45;;;7.25;;
32333;SDS011;18810;53.040;8.850;2023-10-13T11:56:39;17.23;;;7.47;;
32333;SDS011;18810;53.040;8.850;2023-10-13T11:59:05;20.45;;;7.93;;
32333;SDS011;18810;53.040;8.850;2023-10-13T12:01:34;14.45;;;7.22;;
32333;SDS011;18810;53.040;8.850;2023-10-13T12:04:18;20.35;;;7.47;;
32333;SDS011;18810;53.040;8.850;2023-10-13T12:06:57;17.25;;;7.97;;
32333;SDS011;18810;53.040;8.850;2023-10-13T12:09:42;13.27;;;7.28;;
32333;SDS011;18810;53.040;8.850;2023-10-13T12:12:24;12.75;;;6.95;;
32333;SDS011;18810;53.040;8.850;2023-10-13T12:14:51;13.77;;;7.07;;
32333;SDS011;18810;53.040;8.850;2023-10-13T12:17:21;17.27;;;7.68;;
32333;SDS011;18810;53.040;8.850;2023-10-13T12:19:56;14.52;;;6.78;;
32333;SDS011;18810;53.040;8.850;2023-10-13T12:22:25;13.77;;;7.18;;
32333;SDS011;18810;53.040;8.850;2023-10-13T12:25:00;20.33;;;7.82;;
32333;SDS011;18810;53.040;8.850;2023-10-13T12:27:30;18.63;;;7.40;;
32333;SDS011;18810;53.040;8.850;2023-10-13T12:30:14;15.43;;;7.40;;
32333;SDS011;18810;53.040;8.850;2023-10-13T12:32:47;18.42;;;8.07;;
32333;SDS011;18810;53.040;8.850;2023-10-13T12:35:33;12.27;;;7.25;;
32333;SDS011;18810;53.040;8.850;2023-10-13T12:38:20;15.20;;;7.68;;
32333;SDS011;18810;53.040;8.850;2023-10-13T12:41:05;16.38;;;8.55;;
32333;SDS011;18810;53.040;8.850;2023-10-13T12:44:04;16.27;;;7.43;;
32333;SDS011;18810;53.040;8.850;2023-10-13T12:46:49;14.52;;;7.63;;
32333;SDS011;18810;53.040;8.850;2023-10-13T12:49:35;14.57;;;7.65;;
32333;SDS011;18810;53.040;8.850;2023-10-13T12:52:14;19.52;;;7.43;;
32333;SDS011;18810;53.040;8.850;2023-10-13T12:54:58;18.98;;;8.05;;
32333;SDS011;18810;53.040;8.850;2023-10-13T12:57:31;21.00;;;7.63;;
32333;SDS011;18810;53.040;8.850;2023-10-13T12:59:57;17.02;;;7.75;;
32333;SDS011;18810;53.040;8.850;2023-10-13T13:02:24;22.45;;;7.72;;
32333;SDS011;18810;53.040;8.850;2023-10-13T13:04:51;20.83;;;7.45;;
32333;SDS011;18810;53.040;8.850;2023-10-13T13:07:41;18.92;;;8.07;;
32333;SDS011;18810;53.040;8.850;2023-10-13T13:10:15;15.52;;;7.60;;
32333;SDS011;18810;53.040;8.850;2023-10-13T13:12:41;17.55;;;7.55;;
32333;SDS011;18810;53.040;8.850;2023-10-13T13:15:07;17.75;;;8.15;;
32333;SDS011;18810;53.040;8.850;2023-10-13T13:17:39;15.95;;;7.88;;
32333;SDS011;18810;53.040;8.850;2023-10-13T13:20:06;15.45;;;7.95;;
32333;SDS011;18810;53.040;8.850;2023-10-13T13:22:39;18.27;;;8.35;;
32333;SDS011;18810;53.040;8.850;2023-10-13T13:25:05;21.08;;;7.45;;
32333;SDS011;18810;53.040;8.850;2023-10-13T13:27:33;14.20;;;7.15;;
32333;SDS011;18810;53.040;8.850;2023-10-13T13:29:59;18.83;;;7.45;;
32333;SDS011;18810;53.040;8.850;2023-10-13T13:32:25;19.52;;;7.20;;
32333;SDS011;18810;53.040;8.850;2023-10-13T13:34:53;14.45;;;7.47;;
32333;SDS011;18810;53.040;8.850;2023-10-13T13:37:32;21.40;;;8.20;;
32333;SDS011;18810;53.040;8.850;2023-10-13T13:39:59;16.45;;;7.15;;
32333;SDS011;18810;53.040;8.850;2023-10-13T13:42:38;12.60;;;6.95;;
32333;SDS011;18810;53.040;8.850;2023-10-13T13:45:06;17.40;;;8.38;;
32333;SDS011;18810;53.040;8.850;2023-10-13T13:47:47;20.33;;;8.13;;
32333;SDS011;18810;53.040;8.850;2023-10-13T13:50:18;19.38;;;8.20;;
32333;SDS011;18810;53.040;8.850;2023-10-13T13:52:57;15.35;;;7.38;;
32333;SDS011;18810;53.040;8.850;2023-10-13T13:55:23;15.27;;;8.18;;
32333;SDS011;18810;53.040;8.850;2023-10-13T13:57:55;13.35;;;7.60;;
32333;SDS011;18810;53.040;8.850;2023-10-13T14:00:21;19.73;;;7.53;;
32333;SDS011;18810;53.040;8.850;2023-10-13T14:03:13;15.80;;;8.02;;
32333;SDS011;18810;53.040;8.850;2023-10-13T14:06:00;18.08;;;8.35;;
32333;SDS011;18810;53.040;8.850;2023-10-13T14:08:26;14.38;;;8.35;;
32333;SDS011;18810;53.040;8.850;2023-10-13T14:10:55;24.13;;;8.10;;
32333;SDS011;18810;53.040;8.850;2023-10-13T14:13:39;21.70;;;8.50;;
32333;SDS011;18810;53.040;8.850;2023-10-13T14:16:17;22.17;;;8.63;;
32333;SDS011;18810;53.040;8.850;2023-10-13T14:18:45;21.15;;;8.80;;
32333;SDS011;18810;53.040;8.850;2023-10-13T14:21:12;21.00;;;8.55;;
32333;SDS011;18810;53.040;8.850;2023-10-13T14:23:46;17.23;;;8.15;;
32333;SDS011;18810;53.040;8.850;2023-10-13T14:26:16;18.70;;;8.90;;
32333;SDS011;18810;53.040;8.850;2023-10-13T14:28:49;19.95;;;8.23;;
32333;SDS011;18810;53.040;8.850;2023-10-13T14:31:25;17.83;;;8.65;;
32333;SDS011;18810;53.040;8.850;2023-10-13T14:33:51;22.20;;;8.27;;
32333;SDS011;18810;53.040;8.850;2023-10-13T14:36:18;14.60;;;8.35;;
32333;SDS011;18810;53.040;8.850;2023-10-13T14:38:46;18.75;;;8.23;;
32333;SDS011;18810;53.040;8.850;2023-10-13T14:41:17;19.60;;;8.70;;
32333;SDS011;18810;53.040;8.850;2023-10-13T14:43:44;20.80;;;9.13;;
32333;SDS011;18810;53.040;8.850;2023-10-13T14:46:14;15.88;;;8.45;;
32333;SDS011;18810;53.040;8.850;2023-10-13T14:48:41;23.55;;;9.55;;
32333;SDS011;18810;53.040;8.850;2023-10-13T14:51:10;21.80;;;9.18;;
32333;SDS011;18810;53.040;8.850;2023-10-13T14:53:42;21.90;;;8.77;;
32333;SDS011;18810;53.040;8.850;2023-10-13T14:56:15;21.48;;;8.98;;
32333;SDS011;18810;53.040;8.850;2023-10-13T15:01:12;18.45;;;8.88;;
32333;SDS011;18810;53.040;8.850;2023-10-13T15:03:44;23.52;;;9.75;;
32333;SDS011;18810;53.040;8.850;2023-10-13T15:06:15;20.48;;;9.27;;
32333;SDS011;18810;53.040;8.850;2023-10-13T15:08:54;19.02;;;9.55;;
32333;SDS011;18810;53.040;8.850;2023-10-13T15:11:24;18.30;;;9.18;;
32333;SDS011;18810;53.040;8.850;2023-10-13T15:14:04;22.65;;;8.55;;
32333;SDS011;18810;53.040;8.850;2023-10-13T15:16:33;15.55;;;9.05;;
32333;SDS011;18810;53.040;8.850;2023-10-13T15:19:01;16.27;;;8.82;;
32333;SDS011;18810;53.040;8.850;2023-10-13T15:21:29;17.00;;;8.57;;
32333;SDS011;18810;53.040;8.850;2023-10-13T15:23:59;18.95;;;8.35;;
32333;SDS011;18810;53.040;8.850;2023-10-13T15:26:29;17.70;;;8.57;;
32333;SDS011;18810;53.040;8.850;2023-10-13T15:28:57;19.00;;;8.63;;
32333;SDS011;18810;53.040;8.850;2023-10-13T15:31:23;20.85;;;9.30;;